Time;durP1;ratioP1;P1;durP2;ratioP2;P2;SDS_P1;SDS_P2;PMS_P1;PMS_P2;Temp;Humidity;BMP_temperature;BMP_pressure;BME280_temperature;BME280_humidity;BME280_pressure;Samples;Min_cycle;Max_cycle;Signal;HPM_P1;HPM_P2
2022/10/06 00:02:27;;;;;;;13.02;6.03;;;15.50;99.90;;;;;;5031882;28;20458;-65
2022/10/06 00:06:09;;;;;;;9.40;4.97;;;15.50;99.90;;;;;;5031964;28;20053;-65
2022/10/06 00:09:13;;;;;;;12.75;5.60;;;15.40;99.90;;;;;;5031667;28;20040;-65
2022/10/06 00:12:17;;;;;;;12.25;5.72;;;15.40;99.90;;;;;;5031806;28;20056;-65
2022/10/06 00:15:41;;;;;;;15.27;6.07;;;15.30;99.90;;;;;;5031238;28;20044;-65
2022/10/06 00:18:45;;;;;;;12.55;5.85;;;15.30;99.90;;;;;;5031553;28;20188;-64
2022/10/06 00:21:49;;;;;;;8.90;5.57;;;15.40;99.90;;;;;;5031673;28;20064;-65
2022/10/06 00:24:54;;;;;;;9.43;4.97;;;15.30;99.90;;;;;;5031093;28;20048;-65
2022/10/06 00:28:16;;;;;;;13.40;5.68;;;15.30;99.90;;;;;;5031189;28;20040;-65
2022/10/06 00:31:39;;;;;;;9.80;5.68;;;15.20;99.90;;;;;;5031392;28;20048;-64
2022/10/06 00:35:02;;;;;;;13.77;5.88;;;15.20;99.90;;;;;;5031203;28;20032;-65
2022/10/06 00:38:06;;;;;;;8.43;5.40;;;15.20;99.90;;;;;;5030908;28;20499;-65
2022/10/06 00:41:30;;;;;;;11.32;5.47;;;15.10;99.90;;;;;;5030341;28;20045;-65
2022/10/06 00:44:34;;;;;;;16.83;6.63;;;15.00;99.90;;;;;;5031043;28;20056;-65
2022/10/06 00:47:38;;;;;;;16.98;6.75;;;15.00;99.90;;;;;;5030749;28;20061;-65
2022/10/06 00:51:00;;;;;;;10.90;6.45;;;15.00;99.90;;;;;;5030087;28;20052;-65
2022/10/06 00:54:04;;;;;;;;;;;15.00;99.90;;;;;;5031257;28;20041;-65
2022/10/06 00:57:09;;;;;;;12.68;6.32;;;15.00;99.90;;;;;;5030245;28;19916;-65
2022/10/06 01:00:13;;;;;;;10.68;6.25;;;14.90;99.90;;;;;;5031180;28;20044;-64
2022/10/06 01:03:29;;;;;;;11.50;6.13;;;14.80;99.90;;;;;;5030573;28;20068;-65
2022/10/06 01:07:00;;;;;;;13.10;6.30;;;14.80;99.90;;;;;;5031000;28;20040;-65
2022/10/06 01:10:24;;;;;;;12.50;6.63;;;14.80;99.90;;;;;;5029580;28;20425;-65
2022/10/06 01:13:30;;;;;;;20.77;6.70;;;14.80;99.90;;;;;;5029405;28;20048;-64
2022/10/06 01:16:55;;;;;;;16.38;6.63;;;14.80;99.90;;;;;;5030461;28;20040;-65
2022/10/06 01:20:04;;;;;;;10.40;6.25;;;14.70;99.90;;;;;;5030796;28;20040;-65
2022/10/06 01:23:09;;;;;;;10.75;6.20;;;14.70;99.90;;;;;;5030998;28;20064;-65
2022/10/06 01:29:38;;;;;;;12.98;6.35;;;14.70;99.90;;;;;;5034416;28;20045;-65
2022/10/06 01:33:01;;;;;;;12.68;6.90;;;14.80;99.90;;;;;;5034788;28;20048;-65
2022/10/06 01:39:46;;;;;;;12.98;7.00;;;14.80;99.90;;;;;;5034140;28;20061;-64
2022/10/06 01:43:09;;;;;;;12.93;7.10;;;14.70;99.90;;;;;;5034186;28;20048;-65
2022/10/06 01:46:14;;;;;;;13.57;6.80;;;14.70;99.90;;;;;;5034145;28;20045;-65
2022/10/06 01:49:18;;;;;;;14.80;7.32;;;14.60;99.90;;;;;;5033832;28;20412;-65
2022/10/06 01:52:41;;;;;;;15.13;6.10;;;14.60;99.90;;;;;;5034358;28;20048;-65
2022/10/06 01:55:45;;;;;;;19.05;8.73;;;14.60;99.90;;;;;;5033928;28;20049;-65
2022/10/06 01:59:31;;;;;;;12.02;6.63;;;14.50;99.90;;;;;;5033274;28;20044;-64
2022/10/06 02:02:35;;;;;;;14.30;7.85;;;14.50;99.90;;;;;;5033549;28;20392;-64
2022/10/06 02:05:57;;;;;;;13.43;6.85;;;14.40;99.90;;;;;;5033161;28;20503;-64
2022/10/06 02:09:01;;;;;;;18.38;9.13;;;14.30;99.90;;;;;;5032948;28;20049;-65
2022/10/06 02:12:05;;;;;;;12.90;7.93;;;14.20;99.90;;;;;;5033359;28;20068;-64
2022/10/06 02:15:10;;;;;;;17.90;8.90;;;14.10;99.90;;;;;;5033805;28;20045;-64
2022/10/06 02:18:32;;;;;;;14.50;8.13;;;14.10;99.90;;;;;;5033820;28;20084;-64
2022/10/06 02:21:36;;;;;;;11.82;7.00;;;14.00;99.90;;;;;;5032748;28;20048;-64
2022/10/06 02:24:40;;;;;;;9.23;6.30;;;14.10;99.90;;;;;;5033436;28;20048;-64
2022/10/06 02:27:46;;;;;;;10.35;5.65;;;14.10;99.90;;;;;;5032917;28;20048;-64
2022/10/06 02:30:50;;;;;;;8.90;4.55;;;14.00;99.90;;;;;;5032571;28;20056;-64
2022/10/06 02:33:54;;;;;;;8.75;3.88;;;14.10;99.90;;;;;;5032378;28;20054;-65
2022/10/06 02:36:59;;;;;;;13.48;6.30;;;14.00;99.90;;;;;;5032369;28;20048;-65
2022/10/06 02:40:22;;;;;;;9.85;4.22;;;14.00;99.90;;;;;;5031985;28;20064;-65
2022/10/06 02:43:44;;;;;;;10.02;4.82;;;14.00;99.90;;;;;;5033211;28;20048;-65
2022/10/06 02:46:48;;;;;;;9.27;5.05;;;13.90;99.90;;;;;;5033544;28;20503;-62
2022/10/06 02:49:52;;;;;;;9.65;5.40;;;13.90;99.90;;;;;;5032338;28;20041;-65
2022/10/06 02:56:24;;;;;;;8.50;5.25;;;13.90;99.90;;;;;;5032070;28;20048;-65
2022/10/06 02:59:27;;;;;;;9.98;5.57;;;13.90;99.90;;;;;;5032983;28;20507;-64
2022/10/06 03:02:32;;;;;;;10.25;6.57;;;13.80;99.90;;;;;;5031635;28;20052;-64
2022/10/06 03:05:36;;;;;;;11.82;6.85;;;13.80;99.90;;;;;;5032736;28;20049;-65
2022/10/06 03:08:40;;;;;;;10.32;7.65;;;13.90;99.90;;;;;;5032856;28;20044;-64
2022/10/06 03:11:44;;;;;;;15.18;8.40;;;13.70;99.90;;;;;;5032005;28;20056;-64
2022/10/06 03:15:07;;;;;;;17.65;9.13;;;13.60;99.90;;;;;;5032597;28;20040;-65
2022/10/06 03:18:30;;;;;;;11.80;8.35;;;13.50;99.90;;;;;;5032605;28;20060;-65
2022/10/06 03:21:40;;;;;;;15.43;8.35;;;13.30;99.90;;;;;;5032509;28;20388;-64
2022/10/06 03:24:44;;;;;;;16.08;8.98;;;13.30;99.90;;;;;;5032470;28;20052;-64
2022/10/06 03:31:31;;;;;;;15.02;8.65;;;13.10;99.90;;;;;;5031217;28;20052;-64
2022/10/06 03:34:36;;;;;;;21.30;11.15;;;13.10;99.90;;;;;;5031604;28;20056;-64
2022/10/06 03:37:43;;;;;;;19.27;9.82;;;13.00;99.90;;;;;;5031215;28;20504;-64
2022/10/06 03:40:47;;;;;;;30.55;11.10;;;13.00;99.90;;;;;;5031117;28;20040;-64
2022/10/06 03:44:09;;;;;;;37.33;12.35;;;12.90;99.90;;;;;;5031799;28;20487;-64
2022/10/06 03:47:35;;;;;;;15.35;10.65;;;12.90;99.90;;;;;;5031232;28;20044;-64
2022/10/06 03:51:00;;;;;;;19.73;10.15;;;12.90;99.90;;;;;;5031097;28;20388;-64
2022/10/06 03:54:24;;;;;;;18.05;10.55;;;12.90;99.90;;;;;;5031160;28;20052;-64
2022/10/06 03:57:29;;;;;;;20.65;11.63;;;12.80;99.90;;;;;;5030565;28;20046;-64
2022/10/06 04:01:18;;;;;;;23.77;12.40;;;12.90;99.90;;;;;;5031374;28;20392;-64
2022/10/06 04:04:22;;;;;;;27.38;13.90;;;12.90;99.90;;;;;;5023430;28;20056;-64
2022/10/06 04:07:31;;;;;;;23.23;12.65;;;13.00;99.90;;;;;;5031100;28;20048;-64
2022/10/06 04:10:36;;;;;;;24.58;13.98;;;13.00;99.90;;;;;;5030827;28;20045;-64
2022/10/06 04:13:59;;;;;;;25.35;14.00;;;13.00;99.90;;;;;;5031075;28;21088;-64
2022/10/06 04:17:04;;;;;;;23.48;14.25;;;13.00;99.90;;;;;;5030899;28;20044;-64
2022/10/06 04:20:28;;;;;;;22.02;14.10;;;13.00;99.90;;;;;;5031260;28;20064;-64
2022/10/06 04:27:26;;;;;;;23.42;15.30;;;13.00;99.90;;;;;;5030378;28;20261;-64
2022/10/06 04:30:20;;;;;;;19.45;13.50;;;12.90;99.90;;;;;;5030407;28;20045;-64
2022/10/06 04:33:43;;;;;;;20.88;14.70;;;12.90;99.90;;;;;;5029805;28;20060;-64
2022/10/06 04:36:48;;;;;;;23.08;14.63;;;12.80;99.90;;;;;;5030127;28;20057;-64
2022/10/06 04:39:53;;;;;;;26.52;13.65;;;12.80;99.90;;;;;;5041724;28;20503;-64
2022/10/06 04:42:58;;;;;;;36.58;19.58;;;12.60;99.90;;;;;;5030320;28;20045;-64
2022/10/06 04:46:22;;;;;;;19.83;14.20;;;12.50;99.90;;;;;;5030274;28;20056;-64
2022/10/06 04:49:26;;;;;;;31.20;13.73;;;12.60;99.90;;;;;;5030443;28;20049;-65
2022/10/06 04:52:31;;;;;;;36.33;16.83;;;12.60;99.90;;;;;;5030054;28;20392;-64
2022/10/06 04:55:35;;;;;;;153.15;23.33;;;12.60;99.90;;;;;;5030220;28;20048;-64
2022/10/06 04:58:59;;;;;;;126.93;22.85;;;12.70;99.90;;;;;;5030975;28;20041;-64
2022/10/06 05:02:05;;;;;;;186.95;25.73;;;12.80;99.90;;;;;;5030946;28;20060;-64
2022/10/06 05:05:09;;;;;;;140.63;23.42;;;12.70;99.90;;;;;;5034947;28;20523;-64
2022/10/06 05:08:14;;;;;;;60.33;25.20;;;12.60;99.90;;;;;;5033995;28;20053;-64
2022/10/06 05:11:37;;;;;;;143.88;23.90;;;12.60;99.90;;;;;;5034069;28;20056;-64
2022/10/06 05:15:02;;;;;;;74.45;16.50;;;12.30;99.90;;;;;;5033672;28;20049;-64
2022/10/06 05:18:06;;;;;;;47.78;15.00;;;12.20;99.90;;;;;;5034048;28;20068;-63
2022/10/06 05:24:38;;;;;;;40.50;13.43;;;11.90;99.90;;;;;;5034679;28;20033;-64
2022/10/06 05:31:30;;;;;;;31.23;18.75;;;11.80;99.90;;;;;;5033655;28;20064;-64
2022/10/06 05:37:57;;;;;;;;;;;11.90;99.90;;;;;;5033110;28;20048;-64
2022/10/06 05:41:29;;;;;;;23.70;16.00;;;12.00;99.90;;;;;;5032241;28;19913;-64
2022/10/06 05:44:35;;;;;;;21.73;14.00;;;12.10;99.90;;;;;;5032318;28;20065;-64
2022/10/06 05:47:58;;;;;;;26.60;15.85;;;12.00;99.90;;;;;;5033374;28;20052;-65
2022/10/06 05:51:05;;;;;;;22.23;14.68;;;12.10;99.90;;;;;;5032421;28;20068;-64
2022/10/06 05:54:47;;;;;;;19.00;12.80;;;12.10;99.90;;;;;;5031552;28;20056;-64
2022/10/06 05:58:10;;;;;;;16.98;11.18;;;12.20;99.90;;;;;;5033173;28;20064;-64
2022/10/06 06:01:18;;;;;;;17.85;11.02;;;12.20;99.90;;;;;;5032038;28;20068;-65
2022/10/06 06:04:23;;;;;;;18.60;11.32;;;12.10;99.90;;;;;;5031484;28;20500;-64
2022/10/06 06:08:04;;;;;;;15.60;9.55;;;12.80;99.90;;;;;;5029803;28;20044;-64
2022/10/06 06:11:27;;;;;;;15.35;7.72;;;16.20;99.90;;;;;;5019897;28;20040;-64
2022/10/06 06:18:03;;;;;;;10.05;6.63;;;22.40;99.90;;;;;;5032069;28;20056;-64
2022/10/06 06:21:09;;;;;;;8.65;6.03;;;24.70;99.90;;;;;;5031505;28;20045;-64
2022/10/06 06:24:13;;;;;;;9.93;5.75;;;26.30;99.90;;;;;;5031563;28;20491;-64
2022/10/06 06:27:38;;;;;;;8.50;5.93;;;27.50;99.90;;;;;;5031532;28;20048;-64
2022/10/06 06:31:08;;;;;;;8.73;5.55;;;28.30;99.90;;;;;;5015808;28;20053;-65
2022/10/06 06:34:51;;;;;;;5.45;4.15;;;29.10;98.00;;;;;;5033011;28;20056;-64
2022/10/06 06:37:58;;;;;;;9.02;4.50;;;28.70;97.10;;;;;;5031427;28;20480;-64
2022/10/06 06:41:03;;;;;;;6.85;3.85;;;27.20;98.40;;;;;;5029852;28;20120;-64
2022/10/06 06:44:10;;;;;;;10.95;3.17;;;27.60;97.90;;;;;;5025608;28;20068;-64
2022/10/06 06:47:33;;;;;;;3.50;3.10;;;28.60;97.30;;;;;;5030880;28;20056;-64
2022/10/06 06:50:38;;;;;;;4.07;3.40;;;29.40;97.00;;;;;;5031135;28;20499;-64
2022/10/06 06:54:01;;;;;;;10.32;3.90;;;29.40;95.90;;;;;;5029245;28;20335;-65
2022/10/06 07:00:32;;;;;;;4.68;3.05;;;30.60;94.60;;;;;;5031005;28;20045;-65
2022/10/06 07:03:38;;;;;;;4.90;3.00;;;30.50;94.50;;;;;;5030374;28;20048;-65
2022/10/06 07:06:52;;;;;;;3.67;2.83;;;31.20;93.40;;;;;;5015847;28;20040;-65
2022/10/06 07:09:56;;;;;;;7.50;3.63;;;31.20;93.50;;;;;;5029633;28;20041;-65
2022/10/06 07:13:37;;;;;;;7.82;3.10;;;30.60;93.10;;;;;;5031030;28;20520;-64
2022/10/06 07:27:36;;;;;;;3.95;2.17;;;30.30;93.20;;;;;;5028864;28;20040;-65
2022/10/06 07:30:40;;;;;;;7.57;2.70;;;31.60;92.80;;;;;;5024232;28;20511;-65
2022/10/06 07:34:36;;;;;;;6.38;3.90;;;32.60;92.10;;;;;;5024247;28;20040;-66
2022/10/06 07:37:40;;;;;;;4.63;3.22;;;34.20;90.70;;;;;;5030101;28;20044;-65
2022/10/06 07:41:03;;;;;;;3.47;2.92;;;34.70;89.90;;;;;;5023053;28;20048;-65
2022/10/06 07:44:08;;;;;;;7.07;4.90;;;33.50;89.00;;;;;;5019148;28;20393;-65
2022/10/06 07:47:12;;;;;;;8.27;3.30;;;31.60;90.60;;;;;;5028576;28;20048;-65
2022/10/06 07:50:32;;;;;;;3.47;2.42;;;31.10;91.00;;;;;;5020059;28;20041;-65
2022/10/06 07:54:14;;;;;;;5.00;3.10;;;28.30;93.10;;;;;;5029619;28;20504;-65
2022/10/06 07:57:18;;;;;;;4.47;3.50;;;27.30;93.90;;;;;;5031093;28;20049;-64
2022/10/06 08:00:21;;;;;;;6.00;4.93;;;26.90;94.70;;;;;;5030485;28;20036;-64
2022/10/06 08:03:25;;;;;;;9.77;6.68;;;26.10;95.60;;;;;;5014515;28;20041;-64
2022/10/06 08:06:29;;;;;;;10.65;7.82;;;25.90;97.60;;;;;;5027755;28;20049;-65
2022/10/06 08:09:53;;;;;;;9.60;8.30;;;27.30;96.30;;;;;;5030742;28;20060;-65
2022/10/06 08:12:57;;;;;;;8.13;6.00;;;28.50;94.10;;;;;;5022185;28;20057;-65
2022/10/06 08:16:10;;;;;;;9.63;6.18;;;30.30;93.30;;;;;;5025934;28;20036;-65
2022/10/06 08:19:32;;;;;;;12.93;5.88;;;33.00;91.60;;;;;;5026539;28;20040;-65
2022/10/06 08:22:38;;;;;;;6.68;5.10;;;35.00;90.10;;;;;;5028521;28;20044;-65
2022/10/06 08:25:53;;;;;;;5.65;4.80;;;36.40;86.70;;;;;;5036078;28;20048;-66
2022/10/06 08:29:07;;;;;;;6.47;4.63;;;37.20;84.70;;;;;;5027295;28;20058;-65
2022/10/06 08:32:49;;;;;;;4.38;3.65;;;37.60;83.00;;;;;;5028231;28;20053;-65
2022/10/06 08:35:53;;;;;;;7.55;3.70;;;37.20;81.70;;;;;;5023345;28;20334;-65
2022/10/06 08:38:57;;;;;;;3.45;3.15;;;36.10;81.30;;;;;;5027571;28;20040;-65
2022/10/06 08:42:47;;;;;;;4.32;3.40;;;34.60;83.60;;;;;;5021279;28;20511;-65
2022/10/06 08:45:58;;;;;;;4.43;3.50;;;33.80;84.20;;;;;;5020498;28;20184;-65
2022/10/06 08:49:04;;;;;;;9.00;3.85;;;34.70;83.60;;;;;;5029327;28;20053;-65
2022/10/06 08:52:45;;;;;;;7.05;3.92;;;36.50;82.30;;;;;;5028943;28;20068;-65
2022/10/06 08:55:59;;;;;;;5.75;3.60;;;38.60;79.80;;;;;;5029917;28;20056;-65
2022/10/06 08:59:22;;;;;;;4.30;3.38;;;38.40;77.90;;;;;;5029932;28;20040;-64
2022/10/06 09:02:37;;;;;;;4.50;3.05;;;38.70;77.10;;;;;;5022464;28;20048;-64
2022/10/06 09:10:06;;;;;;;4.55;3.10;;;32.50;84.20;;;;;;5029825;28;20377;-64
2022/10/06 09:13:35;;;;;;;4.88;2.85;;;34.00;83.60;;;;;;5029651;28;20396;-64
2022/10/06 09:16:43;;;;;;;4.50;3.10;;;35.80;82.40;;;;;;5030165;28;20052;-64
2022/10/06 09:19:48;;;;;;;3.70;2.55;;;33.70;81.10;;;;;;5028487;28;20033;-65
2022/10/06 09:23:15;;;;;;;5.18;2.55;;;35.20;81.40;;;;;;5026147;28;20040;-65
2022/10/06 09:26:57;;;;;;;4.78;2.30;;;37.70;78.90;;;;;;5021639;28;20096;-65
2022/10/06 09:30:20;;;;;;;5.90;2.67;;;39.80;75.80;;;;;;5027088;28;20048;-65
2022/10/06 09:33:30;;;;;;;3.53;2.15;;;41.30;74.70;;;;;;5029245;28;20049;-65
2022/10/06 09:37:12;;;;;;;3.80;2.72;;;42.40;72.40;;;;;;5010447;28;20590;-65
2022/10/06 09:40:37;;;;;;;4.45;2.78;;;42.00;70.00;;;;;;5029712;28;20056;-66
2022/10/06 09:58:04;;;;;;;5.90;2.40;;;38.50;72.00;;;;;;5031310;28;20044;-65
2022/10/06 10:01:11;;;;;;;7.07;2.40;;;39.20;71.00;;;;;;5031952;28;20384;-65
2022/10/06 10:08:18;;;;;;;6.72;3.00;;;40.10;71.40;;;;;;5029667;28;20048;-66
2022/10/06 10:14:44;;;;;;;6.78;3.85;;;40.00;69.50;;;;;;5028285;28;20491;-65
2022/10/06 10:17:53;;;;;;;3.78;2.67;;;40.00;68.90;;;;;;5033102;28;20044;-65
2022/10/06 10:21:07;;;;;;;3.25;2.35;;;41.20;68.00;;;;;;5030555;28;20052;-65
2022/10/06 10:24:22;;;;;;;3.38;2.40;;;42.00;67.10;;;;;;5027824;28;20052;-65
2022/10/06 10:27:43;;;;;;;3.63;2.20;;;42.70;66.20;;;;;;5031684;28;20483;-66
2022/10/06 10:30:48;;;;;;;3.22;1.67;;;44.00;65.70;;;;;;5027572;28;20056;-66
2022/10/06 10:33:58;;;;;;;3.50;1.90;;;45.40;64.20;;;;;;5031540;28;20041;-67
2022/10/06 10:37:17;;;;;;;5.28;1.98;;;45.90;63.00;;;;;;5028137;28;20052;-65
2022/10/06 10:40:34;;;;;;;2.90;1.55;;;46.20;62.30;;;;;;5030082;28;20045;-66
2022/10/06 10:43:47;;;;;;;4.28;1.60;;;46.50;61.70;;;;;;5026617;28;20040;-64
2022/10/06 10:47:13;;;;;;;3.83;1.67;;;46.20;61.20;;;;;;5030339;28;20491;-64
2022/10/06 10:50:37;;;;;;;3.10;1.42;;;46.50;60.80;;;;;;5027994;28;20499;-66
2022/10/06 10:54:02;;;;;;;5.43;2.30;;;44.80;61.60;;;;;;5028950;28;20045;-65
2022/10/06 10:57:21;;;;;;;3.67;2.17;;;42.40;62.60;;;;;;5027202;28;20053;-65
2022/10/06 11:00:27;;;;;;;3.95;1.75;;;37.00;65.10;;;;;;5015498;28;20041;-64
2022/10/06 11:03:31;;;;;;;3.90;2.30;;;35.70;69.20;;;;;;5029289;28;20045;-65
2022/10/06 11:07:29;;;;;;;4.47;2.28;;;33.80;70.00;;;;;;5028745;28;20048;-64
2022/10/06 11:10:43;;;;;;;4.45;2.30;;;32.90;73.00;;;;;;5018557;28;21758;-65
2022/10/06 11:14:49;;;;;;;8.20;2.40;;;33.50;74.30;;;;;;5030218;28;20044;-65
2022/10/06 11:18:04;;;;;;;5.03;2.25;;;33.50;72.50;;;;;;5025277;28;20060;-64
2022/10/06 11:21:23;;;;;;;3.97;2.55;;;34.50;72.40;;;;;;5030800;28;20056;-65
2022/10/06 11:24:51;;;;;;;4.15;1.80;;;35.60;72.00;;;;;;5028574;28;20037;-65
2022/10/06 11:28:06;;;;;;;4.70;1.98;;;36.70;69.70;;;;;;5029752;28;20049;-65
2022/10/06 11:31:25;;;;;;;4.00;1.48;;;37.80;65.30;;;;;;5028368;28;20044;-65
2022/10/06 11:34:49;;;;;;;3.33;1.30;;;38.60;64.80;;;;;;5026590;28;20053;-66
2022/10/06 11:38:01;;;;;;;4.35;1.77;;;39.20;65.00;;;;;;5030940;28;20044;-66
2022/10/06 11:41:51;;;;;;;1.80;1.35;;;40.00;61.80;;;;;;5021056;28;20056;-66
2022/10/06 11:45:06;;;;;;;4.97;2.00;;;40.30;60.60;;;;;;5027817;28;20048;-65
2022/10/06 11:48:28;;;;;;;3.75;1.20;;;40.20;59.70;;;;;;5030522;28;20048;-66
2022/10/06 11:51:33;;;;;;;2.25;1.27;;;41.70;58.70;;;;;;5030084;28;20045;-66
2022/10/06 11:54:51;;;;;;;1.60;1.08;;;42.90;57.10;;;;;;5025275;28;20483;-65
2022/10/06 11:58:05;;;;;;;3.35;1.08;;;43.80;55.90;;;;;;5025898;28;20037;-63
2022/10/06 12:01:42;;;;;;;2.08;1.05;;;44.50;57.00;;;;;;5029390;28;20048;-66
2022/10/06 12:05:25;;;;;;;6.70;1.40;;;44.00;54.00;;;;;;5027714;28;20476;-65
2022/10/06 12:08:48;;;;;;;5.43;1.50;;;42.90;55.10;;;;;;5029947;28;20040;-65
2022/10/06 12:11:54;;;;;;;2.63;1.60;;;42.00;57.20;;;;;;5025006;28;20523;-66
2022/10/06 12:22:49;;;;;;;7.45;2.55;;;41.50;56.40;;;;;;5019905;28;20051;-65
2022/10/06 12:26:01;;;;;;;3.97;1.80;;;41.50;58.50;;;;;;5017191;28;20044;-64
2022/10/06 12:29:42;;;;;;;3.92;2.20;;;41.70;59.10;;;;;;5027658;28;20052;-65
2022/10/06 12:32:53;;;;;;;4.03;1.85;;;41.80;57.40;;;;;;5021097;28;20053;-64
2022/10/06 12:36:02;;;;;;;5.30;3.22;;;41.20;57.80;;;;;;5026684;28;20048;-64
2022/10/06 12:39:22;;;;;;;4.87;3.00;;;40.60;57.60;;;;;;5025938;28;20250;-64
2022/10/06 12:42:30;;;;;;;3.58;1.83;;;40.50;58.00;;;;;;5025881;28;20044;-64
2022/10/06 12:45:34;;;;;;;4.03;1.90;;;39.40;57.40;;;;;;5027609;28;20050;-65
2022/10/06 12:49:13;;;;;;;3.55;1.98;;;40.10;58.70;;;;;;5021051;28;20044;-65
2022/10/06 12:52:32;;;;;;;6.07;2.35;;;40.90;58.50;;;;;;5025811;28;20045;-65
2022/10/06 12:56:01;;;;;;;3.00;1.90;;;41.70;57.70;;;;;;5028133;28;20044;-65
2022/10/06 12:59:24;;;;;;;5.60;1.80;;;42.40;56.70;;;;;;5021886;28;20049;-65
2022/10/06 13:02:29;;;;;;;3.08;1.80;;;42.80;56.40;;;;;;5026774;28;20044;-65
2022/10/06 13:05:35;;;;;;;4.93;1.75;;;42.80;55.90;;;;;;5025248;28;20048;-64
2022/10/06 13:08:40;;;;;;;4.13;1.40;;;42.70;54.30;;;;;;5024788;28;20127;-64
2022/10/06 13:11:44;;;;;;;2.08;1.35;;;42.10;54.70;;;;;;5027986;28;20494;-64
2022/10/06 13:15:09;;;;;;;2.80;1.30;;;39.40;53.40;;;;;;5023545;28;20045;-64
2022/10/06 13:18:15;;;;;;;3.72;1.80;;;37.80;54.70;;;;;;5030211;28;20045;-64
2022/10/06 13:24:42;;;;;;;2.88;1.30;;;39.50;55.80;;;;;;5030350;28;20048;-65
2022/10/06 13:28:21;;;;;;;1.92;1.27;;;40.40;54.00;;;;;;5027964;28;20044;-64
2022/10/06 13:31:34;;;;;;;2.47;1.50;;;37.40;56.50;;;;;;5031995;28;20499;-65
2022/10/06 13:34:42;;;;;;;4.70;1.98;;;37.80;57.60;;;;;;5026944;28;20033;-65
2022/10/06 13:37:46;;;;;;;4.63;1.60;;;38.90;58.20;;;;;;5031642;28;20049;-65
2022/10/06 13:41:18;;;;;;;4.95;1.98;;;39.80;58.50;;;;;;5028521;28;20053;-64
2022/10/06 13:44:37;;;;;;;3.15;1.23;;;40.40;58.10;;;;;;5033890;28;20056;-65
2022/10/06 13:47:41;;;;;;;2.70;1.33;;;41.10;57.60;;;;;;5034607;28;20052;-65
2022/10/06 13:50:47;;;;;;;4.38;1.50;;;39.90;57.00;;;;;;5034157;28;20049;-65
2022/10/06 13:53:51;;;;;;;3.13;1.40;;;40.30;57.70;;;;;;5033536;28;20053;-65
2022/10/06 13:56:57;;;;;;;5.15;1.38;;;40.80;58.30;;;;;;5032714;28;20040;-65
2022/10/06 14:00:24;;;;;;;5.10;1.50;;;41.10;57.70;;;;;;5029373;28;20048;-65
2022/10/06 14:03:34;;;;;;;2.42;1.33;;;40.70;57.10;;;;;;5031121;28;20493;-65
2022/10/06 14:07:08;;;;;;;2.45;1.30;;;39.90;57.80;;;;;;5032010;28;20476;-65
2022/10/06 14:10:25;;;;;;;2.25;1.20;;;38.60;58.30;;;;;;5040180;28;20056;-65
2022/10/06 14:13:37;;;;;;;4.00;1.20;;;37.90;60.00;;;;;;5021058;28;20049;-65
2022/10/06 14:17:04;;;;;;;2.70;1.30;;;37.20;61.10;;;;;;5025881;28;20112;-64
2022/10/06 14:20:42;;;;;;;5.32;1.48;;;36.40;61.20;;;;;;5030402;28;20041;-65
2022/10/06 14:23:49;;;;;;;2.97;1.17;;;35.80;60.90;;;;;;5028787;28;20076;-64
2022/10/06 14:26:58;;;;;;;4.13;1.42;;;36.00;61.50;;;;;;5031867;28;20071;-63
2022/10/06 14:30:22;;;;;;;6.50;2.10;;;36.40;61.20;;;;;;5031529;28;20381;-64
2022/10/06 14:33:25;;;;;;;4.97;1.33;;;36.20;60.50;;;;;;5032513;28;20040;-64
2022/10/06 14:36:35;;;;;;;2.25;1.55;;;36.10;61.30;;;;;;5030792;28;20044;-64
2022/10/06 14:40:16;;;;;;;4.68;1.70;;;36.00;62.10;;;;;;5031099;28;20053;-64
2022/10/06 14:43:20;;;;;;;3.42;1.30;;;36.00;62.60;;;;;;5013258;28;20049;-64
2022/10/06 14:46:25;;;;;;;7.60;1.52;;;35.70;63.10;;;;;;5024477;28;20048;-64
2022/10/06 14:49:29;;;;;;;8.55;1.67;;;35.00;62.80;;;;;;5031863;28;20044;-64
2022/10/06 14:52:33;;;;;;;6.63;2.25;;;34.10;63.50;;;;;;5028656;28;20051;-63
2022/10/06 14:55:37;;;;;;;4.15;1.70;;;33.00;66.00;;;;;;5023610;28;20039;-64
2022/10/06 14:59:03;;;;;;;17.63;3.28;;;32.20;67.90;;;;;;5024566;28;20040;-65
2022/10/06 15:02:09;;;;;;;18.00;3.33;;;31.70;69.60;;;;;;5024875;28;20416;-66
2022/10/06 15:05:13;;;;;;;5.32;2.60;;;31.30;69.90;;;;;;5021685;28;20045;-66
2022/10/06 15:08:17;;;;;;;6.28;2.15;;;30.90;71.00;;;;;;5024539;28;20427;-65
2022/10/06 15:11:23;;;;;;;24.67;2.70;;;30.40;72.30;;;;;;5020102;28;20056;-65
2022/10/06 15:14:46;;;;;;;6.82;3.17;;;29.90;73.70;;;;;;5023801;28;20538;-66
2022/10/06 15:18:09;;;;;;;11.82;3.30;;;29.50;73.80;;;;;;5023117;28;20037;-65
2022/10/06 15:21:13;;;;;;;6.80;4.03;;;28.80;75.10;;;;;;5021742;28;20041;-65
2022/10/06 15:24:18;;;;;;;7.05;3.72;;;28.40;76.50;;;;;;5025782;28;20048;-65
2022/10/06 15:31:05;;;;;;;12.52;6.32;;;27.70;79.70;;;;;;5024909;28;20388;-64
2022/10/06 15:34:30;;;;;;;15.07;7.35;;;27.60;79.20;;;;;;5020642;28;20044;-65
2022/10/06 15:37:34;;;;;;;12.65;6.30;;;27.40;77.90;;;;;;5023216;28;20044;-65
2022/10/06 15:40:38;;;;;;;11.02;5.45;;;27.10;78.00;;;;;;5024561;28;20040;-65
2022/10/06 15:43:54;;;;;;;9.55;4.78;;;26.90;78.70;;;;;;5028252;28;20048;-64
2022/10/06 15:46:58;;;;;;;13.40;4.88;;;26.70;80.30;;;;;;5030653;28;20052;-65
2022/10/06 15:50:21;;;;;;;8.02;3.67;;;26.50;82.20;;;;;;5032088;28;20048;-65
2022/10/06 15:53:44;;;;;;;9.33;3.47;;;26.20;83.20;;;;;;5030904;28;20048;-65
2022/10/06 15:56:51;;;;;;;9.77;3.90;;;25.90;84.20;;;;;;5031293;28;20496;-64
2022/10/06 15:59:55;;;;;;;5.85;3.90;;;25.70;84.40;;;;;;5027221;28;20056;-65
2022/10/06 16:03:34;;;;;;;10.45;4.30;;;25.50;85.30;;;;;;5025039;28;20056;-65
2022/10/06 16:06:43;;;;;;;8.30;4.63;;;25.40;85.80;;;;;;5026847;28;20048;-65
2022/10/06 16:10:06;;;;;;;13.45;4.85;;;25.20;87.20;;;;;;5031143;28;20049;-64
2022/10/06 16:13:28;;;;;;;19.65;4.90;;;25.10;88.20;;;;;;5030679;28;20368;-64
2022/10/06 16:16:33;;;;;;;13.95;5.55;;;24.90;89.10;;;;;;5028326;28;20036;-65
2022/10/06 16:19:37;;;;;;;23.48;7.22;;;24.80;89.90;;;;;;5031051;28;20040;-65
2022/10/06 16:22:41;;;;;;;18.88;6.68;;;24.60;90.00;;;;;;5029768;28;20052;-65
2022/10/06 16:25:45;;;;;;;12.80;4.93;;;24.40;90.30;;;;;;5024250;28;20040;-64
2022/10/06 16:29:08;;;;;;;11.82;4.95;;;24.30;90.60;;;;;;5026510;28;20040;-64
2022/10/06 16:32:11;;;;;;;14.90;6.20;;;24.10;91.30;;;;;;5030590;28;20049;-64
2022/10/06 16:35:34;;;;;;;18.55;6.57;;;24.00;91.80;;;;;;5030145;28;20044;-64
2022/10/06 16:38:57;;;;;;;9.20;5.60;;;23.80;92.30;;;;;;5030530;28;20056;-64
2022/10/06 16:42:01;;;;;;;12.20;5.50;;;23.50;93.00;;;;;;5029235;28;20103;-64
2022/10/06 16:45:06;;;;;;;12.95;6.22;;;23.20;93.60;;;;;;5029836;28;20048;-64
2022/10/06 16:48:28;;;;;;;9.68;4.82;;;23.00;93.90;;;;;;5029926;28;20052;-64
2022/10/06 16:51:34;;;;;;;12.13;4.68;;;22.80;94.40;;;;;;5030117;28;20515;-65
2022/10/06 16:55:01;;;;;;;10.65;3.95;;;22.60;95.40;;;;;;5066487;28;20383;-50
2022/10/06 16:58:05;;;;;;;13.77;4.70;;;22.40;96.00;;;;;;5066741;28;20037;-50
2022/10/06 17:01:29;;;;;;;7.35;3.17;;;22.20;96.50;;;;;;5066887;28;20047;-49
2022/10/06 17:04:33;;;;;;;8.88;3.42;;;22.10;97.20;;;;;;5066440;28;20376;-49
2022/10/06 17:07:37;;;;;;;8.00;3.13;;;21.90;97.60;;;;;;5066990;28;20508;-49
2022/10/06 17:10:41;;;;;;;6.10;3.25;;;21.80;97.90;;;;;;5066810;28;20503;-49
2022/10/06 17:13:46;;;;;;;7.68;3.33;;;21.70;98.30;;;;;;5066053;28;20044;-53
2022/10/06 17:16:52;;;;;;;10.13;3.28;;;21.40;98.80;;;;;;5066315;28;20412;-49
2022/10/06 17:20:15;;;;;;;9.90;3.35;;;21.40;99.00;;;;;;5066483;28;20072;-53
2022/10/06 17:23:19;;;;;;;9.00;3.67;;;21.30;98.90;;;;;;5066125;28;20069;-50
2022/10/06 17:26:29;;;;;;;11.43;3.65;;;21.30;98.80;;;;;;5066449;28;20044;-50
2022/10/06 17:29:33;;;;;;;7.65;3.13;;;21.20;99.30;;;;;;5065783;28;20395;-50
2022/10/06 17:32:39;;;;;;;6.75;3.10;;;21.10;99.30;;;;;;5066556;28;20037;-50
2022/10/06 17:35:43;;;;;;;9.50;2.80;;;21.00;99.60;;;;;;5066452;28;20041;-53
2022/10/06 17:38:52;;;;;;;8.45;3.20;;;21.00;99.60;;;;;;5066061;28;20376;-49
2022/10/06 17:41:57;;;;;;;6.53;3.28;;;20.90;99.80;;;;;;5066356;28;20040;-49
2022/10/06 17:45:39;;;;;;;8.32;3.30;;;20.90;99.90;;;;;;5066249;28;20040;-49
2022/10/06 17:48:44;;;;;;;9.65;3.70;;;20.90;99.90;;;;;;5065156;28;20041;-53
2022/10/06 17:52:07;;;;;;;11.13;4.70;;;20.80;99.90;;;;;;5066674;28;20037;-49
2022/10/06 17:55:10;;;;;;;8.23;4.68;;;20.70;99.90;;;;;;5065836;28;20233;-49
2022/10/06 17:58:14;;;;;;;10.20;4.63;;;20.70;99.90;;;;;;5065797;28;20044;-50
2022/10/06 18:01:18;;;;;;;10.98;4.20;;;20.60;99.90;;;;;;5065663;28;20071;-49
2022/10/06 18:04:23;;;;;;;6.32;3.63;;;20.50;99.90;;;;;;5061531;28;20052;-49
2022/10/06 18:07:27;;;;;;;8.70;3.20;;;20.40;99.90;;;;;;5052222;28;20041;-52
2022/10/06 18:13:54;;;;;;;6.10;3.60;;;20.20;99.90;;;;;;5051738;28;20041;-50